createdAt,value
2018-03-20T00:00:53.475Z,8.57
2018-03-20T00:02:00.183Z,12.48
2018-03-20T00:03:06.469Z,8.60
2018-03-20T00:04:11.988Z,8.30
2018-03-20T00:05:18.451Z,7.87
2018-03-20T00:06:24.749Z,7.82
2018-03-20T00:07:29.993Z,12.02
2018-03-20T00:08:35.130Z,8.82
2018-03-20T00:09:41.340Z,10.02
2018-03-20T00:10:47.053Z,10.02
2018-03-20T00:11:53.764Z,9.00
2018-03-20T00:12:59.772Z,10.05
2018-03-20T00:14:05.056Z,15.60
2018-03-20T00:15:10.988Z,8.05
2018-03-20T00:16:16.127Z,13.75
2018-03-20T00:17:21.227Z,9.48
2018-03-20T00:18:26.370Z,8.75
2018-03-20T00:19:31.769Z,11.15
2018-03-20T00:20:36.882Z,9.93
2018-03-20T00:21:42.779Z,13.90
2018-03-20T00:22:48.397Z,10.52
2018-03-20T00:23:53.740Z,12.18
2018-03-20T00:24:59.794Z,9.48
2018-03-20T00:26:05.368Z,8.48
2018-03-20T00:27:11.718Z,7.95
2018-03-20T00:28:16.875Z,9.52
2018-03-20T00:29:22.237Z,12.52
2018-03-20T00:30:27.347Z,10.43
2018-03-20T00:31:32.718Z,7.68
2018-03-20T00:32:39.245Z,12.23
2018-03-20T00:33:44.670Z,8.85
2018-03-20T00:34:50.071Z,11.07
2018-03-20T00:35:55.363Z,10.45
2018-03-20T00:37:02.360Z,12.40
2018-03-20T00:38:07.568Z,11.05
2018-03-20T00:39:13.323Z,9.38
2018-03-20T00:40:18.725Z,10.35
2018-03-20T00:41:25.325Z,14.87
2018-03-20T00:42:30.590Z,8.10
2018-03-20T00:43:37.072Z,6.12
2018-03-20T00:44:42.554Z,8.15
2018-03-20T00:45:47.841Z,10.87
2018-03-20T00:46:54.288Z,10.15
2018-03-20T00:48:01.221Z,11.57
2018-03-20T00:49:06.544Z,8.98
2018-03-20T00:50:12.024Z,11.15
2018-03-20T00:51:17.159Z,9.77
2018-03-20T00:52:22.573Z,9.15
2018-03-20T00:53:27.831Z,7.87
2018-03-20T00:54:33.916Z,8.55
2018-03-20T00:55:39.310Z,7.62
2018-03-20T00:56:45.591Z,10.48
2018-03-20T00:57:50.840Z,9.00
2018-03-20T00:58:56.150Z,7.20
2018-03-20T01:00:01.675Z,7.78
2018-03-20T01:01:07.025Z,7.75
2018-03-20T01:02:12.456Z,16.42
2018-03-20T01:03:17.844Z,7.40
2018-03-20T01:04:23.218Z,9.50
2018-03-20T01:05:28.374Z,8.57
2018-03-20T01:06:33.897Z,9.45
2018-03-20T01:07:39.700Z,11.07
2018-03-20T01:08:45.698Z,8.63
2018-03-20T01:09:51.181Z,8.90
2018-03-20T01:10:57.856Z,8.70
2018-03-20T01:12:03.720Z,11.30
2018-03-20T01:13:08.938Z,8.20
2018-03-20T01:14:14.393Z,10.30
2018-03-20T01:15:19.842Z,9.07
2018-03-20T01:16:25.537Z,7.75
2018-03-20T01:17:30.804Z,8.48
2018-03-20T01:18:36.976Z,11.68
2018-03-20T01:19:42.829Z,9.48
2018-03-20T01:20:48.412Z,9.35
2018-03-20T01:21:54.828Z,11.55
2018-03-20T01:23:02.084Z,10.98
2018-03-20T01:24:09.010Z,10.25
2018-03-20T01:25:14.491Z,12.02
2018-03-20T01:26:19.901Z,9.10
2018-03-20T01:27:26.944Z,11.82
2018-03-20T01:28:32.813Z,13.73
2018-03-20T01:29:38.492Z,11.30
2018-03-20T01:30:43.975Z,10.38
2018-03-20T01:31:49.467Z,14.53
2018-03-20T01:32:55.728Z,11.77
2018-03-20T01:34:01.313Z,8.95
2018-03-20T01:35:06.460Z,12.75
2018-03-20T01:36:11.660Z,9.32
2018-03-20T01:37:16.897Z,11.85
2018-03-20T01:38:22.392Z,12.80
2018-03-20T01:39:27.665Z,11.40
2018-03-20T01:40:32.951Z,9.50
2018-03-20T01:41:38.348Z,10.68
2018-03-20T01:42:44.822Z,10.10
2018-03-20T01:43:50.798Z,10.25
2018-03-20T01:44:56.043Z,6.62
2018-03-20T01:46:00.968Z,10.10
2018-03-20T01:47:06.242Z,8.88
2018-03-20T01:48:12.075Z,8.55
2018-03-20T01:49:17.314Z,9.77
2018-03-20T01:50:23.560Z,12.20
2018-03-20T01:51:28.485Z,13.60
2018-03-20T01:52:33.551Z,8.90
2018-03-20T01:53:38.752Z,9.63
2018-03-20T01:54:45.025Z,10.55
2018-03-20T01:55:50.489Z,10.52
2018-03-20T01:56:55.779Z,10.23
2018-03-20T01:58:01.606Z,8.90
2018-03-20T01:59:07.842Z,11.23
2018-03-20T02:00:12.733Z,11.12
2018-03-20T02:01:18.233Z,12.03
2018-03-20T02:02:23.896Z,7.50
2018-03-20T02:03:29.115Z,10.70
2018-03-20T02:04:34.156Z,12.93
2018-03-20T02:05:40.380Z,9.60
2018-03-20T02:06:45.279Z,10.77
2018-03-20T02:07:51.221Z,10.65
2018-03-20T02:08:56.872Z,13.77
2018-03-20T02:10:03.209Z,9.93
2018-03-20T02:11:08.468Z,10.10
2018-03-20T02:12:13.348Z,10.00
2018-03-20T02:13:18.278Z,14.57
2018-03-20T02:14:23.398Z,12.00
2018-03-20T02:15:28.353Z,11.55
2018-03-20T02:16:33.442Z,13.55
2018-03-20T02:17:38.080Z,8.98
2018-03-20T02:18:43.690Z,12.85
2018-03-20T02:19:49.341Z,13.07
2018-03-20T02:20:54.582Z,13.88
2018-03-20T02:22:04.259Z,13.70
2018-03-20T02:23:10.666Z,83.75
2018-03-20T02:24:15.465Z,49.13
2018-03-20T02:25:19.878Z,15.70
2018-03-20T02:26:24.664Z,13.13
2018-03-20T02:27:29.389Z,12.05
2018-03-20T02:28:34.376Z,10.02
2018-03-20T02:29:39.989Z,16.90
2018-03-20T02:30:45.917Z,15.23
2018-03-20T02:31:50.362Z,9.95
2018-03-20T02:32:56.161Z,12.70
2018-03-20T02:34:01.054Z,13.27
2018-03-20T02:35:06.509Z,12.80
2018-03-20T02:36:11.271Z,9.68
2018-03-20T02:37:16.976Z,15.20
2018-03-20T02:38:21.437Z,19.52
2018-03-20T02:39:26.445Z,16.62
2018-03-20T02:40:31.731Z,11.88
2018-03-20T02:41:36.479Z,12.68
2018-03-20T02:42:42.176Z,12.95
2018-03-20T02:43:47.055Z,13.75
2018-03-20T02:44:52.410Z,12.10
2018-03-20T02:45:56.951Z,12.30
2018-03-20T02:47:00.853Z,14.02
2018-03-20T02:48:05.858Z,11.40
2018-03-20T02:49:10.706Z,13.68
2018-03-20T02:50:15.033Z,16.47
2018-03-20T02:51:19.331Z,21.00
2018-03-20T02:52:23.823Z,33.95
2018-03-20T02:53:28.263Z,18.45
2018-03-20T02:54:33.625Z,24.00
2018-03-20T02:55:38.624Z,13.90
2018-03-20T02:56:43.674Z,16.30
2018-03-20T02:57:48.197Z,12.37
2018-03-20T02:58:52.875Z,14.55
2018-03-20T02:59:57.969Z,11.95
2018-03-20T03:01:03.484Z,15.52
2018-03-20T03:02:08.274Z,13.33
2018-03-20T03:03:12.580Z,16.67
2018-03-20T03:04:16.975Z,14.00
2018-03-20T03:05:22.582Z,19.35
2018-03-20T03:06:26.947Z,16.77
2018-03-20T03:07:31.751Z,14.02
2018-03-20T03:08:36.246Z,17.55
2018-03-20T03:09:41.293Z,18.08
2018-03-20T03:10:45.771Z,16.17
2018-03-20T03:11:51.014Z,14.15
2018-03-20T03:12:56.112Z,17.48
2018-03-20T03:14:00.601Z,17.20
2018-03-20T03:15:05.583Z,11.68
2018-03-20T03:16:10.617Z,16.05
2018-03-20T03:17:15.119Z,17.67
2018-03-20T03:18:19.802Z,12.25
2018-03-20T03:19:24.715Z,12.50
2018-03-20T03:20:30.034Z,18.98
2018-03-20T03:21:35.253Z,11.40
2018-03-20T03:22:39.856Z,12.90
2018-03-20T03:23:44.876Z,13.15
2018-03-20T03:24:49.423Z,12.57
2018-03-20T03:25:55.213Z,11.45
2018-03-20T03:27:00.228Z,10.50
2018-03-20T03:28:04.881Z,13.88
2018-03-20T03:29:09.151Z,20.23
2018-03-20T03:30:13.515Z,11.87
2018-03-20T03:31:18.290Z,12.77
2018-03-20T03:32:22.908Z,15.03
2018-03-20T03:33:27.714Z,14.10
2018-03-20T03:34:33.652Z,12.75
2018-03-20T03:35:39.177Z,14.70
2018-03-20T03:36:44.242Z,16.62
2018-03-20T03:37:49.134Z,14.77
2018-03-20T03:38:53.509Z,14.93
2018-03-20T03:39:58.067Z,15.90
2018-03-20T03:41:02.683Z,14.00
2018-03-20T03:42:07.087Z,17.27
2018-03-20T03:43:11.574Z,14.60
2018-03-20T03:44:16.991Z,14.52
2018-03-20T03:45:21.345Z,17.70
2018-03-20T03:46:26.471Z,21.85
2018-03-20T03:47:31.389Z,24.67
2018-03-20T03:48:35.972Z,14.77
2018-03-20T03:49:41.412Z,13.45
2018-03-20T03:50:46.435Z,12.40
2018-03-20T03:51:51.755Z,13.13
2018-03-20T03:52:56.180Z,13.55
2018-03-20T03:54:01.326Z,13.90
2018-03-20T03:55:06.346Z,18.90
2018-03-20T03:56:11.209Z,12.02
2018-03-20T03:57:15.700Z,16.67
2018-03-20T03:58:20.290Z,15.70
2018-03-20T03:59:24.873Z,11.77
2018-03-20T04:00:29.303Z,17.67
2018-03-20T04:01:36.005Z,13.23
2018-03-20T04:02:40.323Z,18.50
2018-03-20T04:03:44.820Z,16.60
2018-03-20T04:04:49.688Z,17.02
2018-03-20T04:05:56.303Z,19.90
2018-03-20T04:07:01.408Z,15.25
2018-03-20T04:08:05.781Z,12.82
2018-03-20T04:09:11.129Z,14.87
2018-03-20T04:10:16.195Z,13.45
2018-03-20T04:11:20.746Z,16.45
2018-03-20T04:12:25.049Z,16.87
2018-03-20T04:13:29.797Z,18.05
2018-03-20T04:14:34.951Z,15.15
2018-03-20T04:15:39.764Z,17.25
2018-03-20T04:16:44.485Z,16.73
2018-03-20T04:17:49.485Z,19.08
2018-03-20T04:18:53.821Z,17.95
2018-03-20T04:19:58.846Z,15.65
2018-03-20T04:21:03.846Z,18.95
2018-03-20T04:22:08.382Z,18.60
2018-03-20T04:23:13.077Z,20.83
2018-03-20T04:24:17.432Z,22.08
2018-03-20T04:25:22.218Z,16.98
2018-03-20T04:26:26.492Z,20.12
2018-03-20T04:27:31.790Z,18.92
2018-03-20T04:28:36.085Z,20.67
2018-03-20T04:29:40.741Z,25.02
2018-03-20T04:30:45.926Z,22.30
2018-03-20T04:31:50.319Z,22.45
2018-03-20T04:32:54.805Z,16.90
2018-03-20T04:33:59.736Z,17.33
2018-03-20T04:35:04.383Z,20.88
2018-03-20T04:36:08.740Z,17.50
2018-03-20T04:37:13.459Z,16.17
2018-03-20T04:38:18.227Z,16.65
2018-03-20T04:39:23.077Z,17.02
2018-03-20T04:40:28.326Z,17.62
2018-03-20T04:41:32.640Z,17.50
2018-03-20T04:42:37.313Z,17.20
2018-03-20T04:43:42.026Z,21.85
2018-03-20T04:44:46.679Z,19.90
2018-03-20T04:45:51.208Z,11.75
2018-03-20T04:46:55.564Z,18.92
2018-03-20T04:48:01.214Z,18.02
2018-03-20T04:49:05.767Z,16.70
2018-03-20T04:50:11.044Z,15.55
2018-03-20T04:51:15.734Z,16.62
2018-03-20T04:52:20.873Z,15.52
2018-03-20T04:53:25.323Z,19.73
2018-03-20T04:54:30.805Z,14.00
2018-03-20T04:55:35.626Z,15.23
2018-03-20T04:56:40.524Z,15.37
2018-03-20T04:57:45.005Z,16.58
2018-03-20T04:58:50.177Z,11.98
2018-03-20T04:59:55.135Z,20.37
2018-03-20T05:01:00.477Z,15.05
2018-03-20T05:02:05.216Z,16.80
2018-03-20T05:03:10.328Z,20.65
2018-03-20T05:04:15.921Z,16.05
2018-03-20T05:05:21.328Z,13.27
2018-03-20T05:06:26.649Z,18.27
2018-03-20T05:07:31.961Z,18.98
2018-03-20T05:08:37.874Z,17.02
2018-03-20T05:09:42.708Z,18.98
2018-03-20T05:10:47.616Z,18.85
2018-03-20T05:11:52.372Z,19.63
2018-03-20T05:12:57.675Z,21.42
2018-03-20T05:14:02.682Z,11.93
2018-03-20T05:15:07.496Z,16.58
2018-03-20T05:16:12.464Z,16.48
2018-03-20T05:17:18.123Z,17.30
2018-03-20T05:18:22.742Z,15.75
2018-03-20T05:19:27.782Z,16.98
2018-03-20T05:20:33.439Z,14.25
2018-03-20T05:21:38.445Z,14.02
2018-03-20T05:22:43.757Z,12.82
2018-03-20T05:23:48.868Z,11.48
2018-03-20T05:24:53.745Z,14.23
2018-03-20T05:25:58.631Z,12.60
2018-03-20T05:27:03.523Z,14.10
2018-03-20T05:28:08.562Z,17.10
2018-03-20T05:29:13.328Z,13.52
2018-03-20T05:30:18.246Z,10.38
2018-03-20T05:31:22.935Z,13.40
2018-03-20T05:32:28.697Z,16.02
2018-03-20T05:33:33.290Z,12.05
2018-03-20T05:34:38.171Z,14.23
2018-03-20T05:35:43.657Z,13.30
2018-03-20T05:36:48.483Z,11.80
2018-03-20T05:37:53.558Z,14.25
2018-03-20T05:38:59.220Z,11.70
2018-03-20T05:40:04.944Z,11.77
2018-03-20T05:41:09.876Z,10.85
2018-03-20T05:42:15.999Z,13.75
2018-03-20T05:43:21.797Z,17.42
2018-03-20T05:44:27.031Z,16.20
2018-03-20T05:45:32.645Z,16.58
2018-03-20T05:46:37.845Z,12.20
2018-03-20T05:47:42.903Z,14.50
2018-03-20T05:48:49.446Z,16.15
2018-03-20T05:49:54.832Z,14.85
2018-03-20T05:51:01.962Z,16.73
2018-03-20T05:52:07.277Z,17.42
2018-03-20T05:53:12.455Z,20.55
2018-03-20T05:54:18.768Z,17.58
2018-03-20T05:55:24.598Z,18.95
2018-03-20T05:56:29.980Z,19.50
2018-03-20T05:57:35.376Z,15.45
2018-03-20T05:58:41.026Z,15.57
2018-03-20T05:59:46.447Z,20.92
2018-03-20T06:00:51.460Z,16.87
2018-03-20T06:01:56.286Z,14.63
2018-03-20T06:03:03.288Z,18.70
2018-03-20T06:04:08.486Z,14.70
2018-03-20T06:05:14.061Z,15.45
2018-03-20T06:06:20.428Z,18.65
2018-03-20T06:07:26.889Z,15.77
2018-03-20T06:08:33.366Z,21.80
2018-03-20T06:09:39.210Z,14.90
2018-03-20T06:11:09.210Z,18.73
2018-03-20T06:12:15.729Z,16.60
2018-03-20T06:13:21.189Z,15.73
2018-03-20T06:14:27.506Z,16.30
2018-03-20T06:15:33.406Z,17.10
2018-03-20T06:16:39.766Z,23.10
2018-03-20T06:17:45.010Z,15.05
2018-03-20T06:18:50.104Z,24.65
2018-03-20T06:19:56.364Z,20.00
2018-03-20T06:21:02.444Z,20.00
2018-03-20T06:22:07.800Z,19.30
2018-03-20T06:23:13.465Z,23.80
2018-03-20T06:24:19.200Z,18.90
2018-03-20T06:25:26.012Z,19.73
2018-03-20T06:26:31.284Z,16.83
2018-03-20T06:27:36.527Z,18.20
2018-03-20T06:28:41.969Z,17.40
2018-03-20T06:29:47.992Z,17.25
2018-03-20T06:30:53.472Z,16.30
2018-03-20T06:32:01.891Z,19.42
2018-03-20T06:33:07.395Z,16.17
2018-03-20T06:34:13.859Z,17.90
2018-03-20T06:35:20.223Z,19.30
2018-03-20T06:36:26.236Z,26.27
2018-03-20T06:37:31.708Z,28.55
2018-03-20T06:38:38.137Z,20.23
2018-03-20T06:39:44.372Z,22.95
2018-03-20T06:40:50.010Z,19.87
2018-03-20T06:41:55.660Z,21.63
2018-03-20T06:43:02.013Z,25.65
2018-03-20T06:44:07.697Z,18.30
2018-03-20T06:45:12.977Z,18.62
2018-03-20T06:46:18.478Z,22.42
2018-03-20T06:47:23.651Z,17.27
2018-03-20T06:48:29.256Z,21.52
2018-03-20T06:49:34.473Z,16.62
2018-03-20T06:50:39.589Z,19.67
2018-03-20T06:51:44.764Z,20.45
2018-03-20T06:52:50.845Z,17.27
2018-03-20T06:53:56.577Z,18.00
2018-03-20T06:55:03.661Z,17.12
2018-03-20T06:56:09.226Z,20.80
2018-03-20T06:57:14.805Z,18.33
2018-03-20T06:58:21.195Z,18.23
2018-03-20T06:59:26.511Z,20.63
2018-03-20T07:00:31.709Z,23.38
2018-03-20T07:01:36.947Z,16.30
2018-03-20T07:02:43.059Z,16.00
2018-03-20T07:03:49.086Z,16.42
2018-03-20T07:04:55.331Z,18.55
2018-03-20T07:06:01.481Z,18.52
2018-03-20T07:07:06.589Z,20.65
2018-03-20T07:08:11.827Z,20.65
2018-03-20T07:09:17.501Z,21.10
2018-03-20T07:10:23.153Z,21.23
2018-03-20T07:11:28.481Z,19.10
2018-03-20T07:12:33.648Z,17.27
2018-03-20T07:13:39.830Z,16.65
2018-03-20T07:14:45.009Z,19.90
2018-03-20T07:15:51.073Z,29.73
2018-03-20T07:16:57.242Z,18.80
2018-03-20T07:18:02.336Z,22.02
2018-03-20T07:19:08.599Z,19.80
2018-03-20T07:20:14.646Z,18.48
2018-03-20T07:21:20.065Z,20.35
2018-03-20T07:22:25.286Z,18.58
2018-03-20T07:23:30.366Z,16.12
2018-03-20T07:24:35.503Z,24.45
2018-03-20T07:25:40.905Z,21.70
2018-03-20T07:26:46.452Z,22.27
2018-03-20T07:27:51.744Z,19.27
2018-03-20T07:28:57.960Z,21.08
2018-03-20T07:30:03.947Z,26.25
2018-03-20T07:31:10.168Z,17.95
2018-03-20T07:32:15.730Z,27.77
2018-03-20T07:33:21.655Z,26.67
2018-03-20T07:34:26.957Z,29.48
2018-03-20T07:35:32.226Z,25.88
2018-03-20T07:36:37.575Z,22.40
2018-03-20T07:37:43.752Z,31.92
2018-03-20T07:38:48.870Z,24.80
2018-03-20T07:39:54.181Z,22.33
2018-03-20T07:41:03.903Z,32.45
2018-03-20T07:42:09.726Z,24.17
2018-03-20T07:43:15.302Z,23.60
2018-03-20T07:44:20.728Z,25.57
2018-03-20T07:45:26.809Z,29.05
2018-03-20T07:46:32.801Z,38.38
2018-03-20T07:47:38.080Z,25.08
2018-03-20T07:48:43.334Z,29.58
2018-03-20T07:49:48.661Z,28.60
2018-03-20T07:50:56.240Z,36.47
2018-03-20T07:52:02.574Z,30.95
2018-03-20T07:53:07.607Z,36.13
2018-03-20T07:54:14.247Z,51.63
2018-03-20T07:55:20.348Z,38.38
2018-03-20T07:56:25.631Z,34.88
2018-03-20T07:57:30.936Z,31.15
2018-03-20T07:58:36.972Z,43.63
2018-03-20T07:59:42.430Z,44.50
2018-03-20T08:00:48.481Z,30.90
2018-03-20T08:01:54.421Z,34.40
2018-03-20T08:03:00.241Z,39.08
2018-03-20T08:04:05.474Z,32.67
2018-03-20T08:05:10.711Z,39.83
2018-03-20T08:06:16.861Z,42.15
2018-03-20T08:07:21.923Z,47.70
2018-03-20T08:08:27.149Z,45.83
2018-03-20T08:09:33.180Z,39.37
2018-03-20T08:10:38.314Z,37.30
2018-03-20T08:11:43.869Z,35.30
2018-03-20T08:12:49.140Z,42.70
2018-03-20T08:13:54.255Z,37.67
2018-03-20T08:15:00.271Z,39.65
2018-03-20T08:16:05.565Z,38.25
2018-03-20T08:17:13.077Z,43.50
2018-03-20T08:18:18.464Z,44.97
2018-03-20T08:19:23.700Z,41.37
2018-03-20T08:20:29.616Z,40.78
2018-03-20T08:21:34.927Z,39.97
2018-03-20T08:22:40.637Z,39.78
2018-03-20T08:23:45.894Z,40.42
2018-03-20T08:24:52.387Z,37.80
2018-03-20T08:25:57.422Z,38.80
2018-03-20T08:27:04.038Z,47.10
2018-03-20T08:28:08.941Z,39.17
2018-03-20T08:29:14.013Z,37.10
2018-03-20T08:30:19.287Z,46.35
2018-03-20T08:31:25.458Z,35.67
2018-03-20T08:32:30.987Z,48.63
2018-03-20T08:33:36.256Z,38.67
2018-03-20T08:34:41.318Z,78.97
2018-03-20T08:35:47.234Z,64.55
2018-03-20T08:36:52.193Z,45.53
2018-03-20T08:37:57.336Z,43.65
2018-03-20T08:39:02.395Z,56.63
2018-03-20T08:40:07.958Z,49.55
2018-03-20T08:41:13.718Z,33.05
2018-03-20T08:42:18.656Z,43.83
2018-03-20T08:43:24.380Z,57.47
2018-03-20T08:44:29.994Z,52.13
2018-03-20T08:45:35.681Z,51.17
2018-03-20T08:46:40.625Z,57.88
2018-03-20T08:47:47.105Z,52.88
2018-03-20T08:48:57.415Z,47.15
2018-03-20T08:50:03.326Z,54.58
2018-03-20T08:51:08.765Z,49.50
2018-03-20T08:52:15.008Z,49.28
2018-03-20T08:53:22.003Z,46.83
2018-03-20T08:54:28.166Z,49.92
2018-03-20T08:55:34.268Z,46.08
2018-03-20T08:56:40.551Z,51.15
2018-03-20T08:57:45.372Z,63.33
2018-03-20T08:58:50.312Z,54.35
2018-03-20T08:59:55.494Z,50.42
2018-03-20T09:01:02.012Z,63.22
2018-03-20T09:02:07.097Z,61.30
2018-03-20T09:03:12.152Z,60.80
2018-03-20T09:04:17.257Z,67.20
2018-03-20T09:05:22.204Z,59.80
2018-03-20T09:06:27.207Z,53.53
2018-03-20T09:07:33.607Z,53.67
2018-03-20T09:08:38.693Z,48.03
2018-03-20T09:09:43.760Z,54.58
2018-03-20T09:10:48.827Z,53.75
2018-03-20T09:11:53.892Z,54.40
2018-03-20T09:12:59.972Z,61.13
2018-03-20T09:14:05.921Z,57.62
2018-03-20T09:15:11.679Z,62.22
2018-03-20T09:16:16.625Z,58.97
2018-03-20T09:17:21.743Z,54.10
2018-03-20T09:18:26.710Z,65.07
2018-03-20T09:19:32.469Z,56.70
2018-03-20T09:20:38.141Z,59.13
2018-03-20T09:21:43.202Z,45.55
2018-03-20T09:22:48.138Z,60.78
2018-03-20T09:23:53.934Z,54.95
2018-03-20T09:24:59.732Z,63.22
2018-03-20T09:26:05.667Z,55.92
2018-03-20T09:27:11.421Z,59.33
2018-03-20T09:28:17.416Z,56.15
2018-03-20T09:29:22.342Z,53.83
2018-03-20T09:30:27.617Z,55.33
2018-03-20T09:31:33.373Z,51.90
2018-03-20T09:32:39.192Z,59.20
2018-03-20T09:33:44.335Z,55.28
2018-03-20T09:34:50.109Z,53.15
2018-03-20T09:35:55.038Z,57.35
2018-03-20T09:37:00.013Z,55.90
2018-03-20T09:38:06.073Z,59.25
2018-03-20T09:39:11.827Z,53.30
2018-03-20T09:40:16.936Z,55.12
2018-03-20T09:41:23.905Z,57.13
2018-03-20T09:42:29.604Z,49.55
2018-03-20T09:43:34.502Z,52.85
2018-03-20T09:44:39.505Z,51.15
2018-03-20T09:45:44.491Z,48.63
2018-03-20T09:46:49.931Z,58.33
2018-03-20T09:47:55.134Z,48.75
2018-03-20T09:49:00.329Z,40.60
2018-03-20T09:50:06.187Z,43.35
2018-03-20T09:51:11.284Z,69.97
2018-03-20T09:52:16.452Z,49.20
2018-03-20T09:53:21.328Z,45.67
2018-03-20T09:54:27.057Z,45.53
2018-03-20T09:55:33.037Z,42.78
2018-03-20T09:56:38.316Z,52.92
2018-03-20T09:57:44.068Z,35.15
2018-03-20T09:58:50.031Z,53.92
2018-03-20T09:59:54.979Z,46.05
2018-03-20T10:01:00.135Z,44.78
2018-03-20T10:02:05.302Z,49.58
2018-03-20T10:03:10.268Z,51.97
2018-03-20T10:04:15.331Z,43.87
2018-03-20T10:05:21.010Z,38.83
2018-03-20T10:06:26.133Z,43.50
2018-03-20T10:07:31.042Z,34.65
2018-03-20T10:08:36.367Z,35.20
2018-03-20T10:09:41.347Z,31.20
2018-03-20T10:10:46.304Z,36.63
2018-03-20T10:11:52.045Z,32.15
2018-03-20T10:12:56.813Z,39.87
2018-03-20T10:14:03.341Z,27.08
2018-03-20T10:15:08.290Z,30.15
2018-03-20T10:16:13.072Z,32.50
2018-03-20T10:17:18.074Z,30.17
2018-03-20T10:18:23.768Z,37.67
2018-03-20T10:19:29.640Z,35.22
2018-03-20T10:20:35.269Z,30.95
2018-03-20T10:21:40.211Z,26.85
2018-03-20T10:22:45.106Z,26.37
2018-03-20T10:23:49.797Z,29.15
2018-03-20T10:24:57.222Z,31.33
2018-03-20T10:26:04.276Z,27.17
2018-03-20T10:27:09.071Z,25.62
2018-03-20T10:28:14.863Z,27.40
2018-03-20T10:29:22.874Z,28.33
2018-03-20T10:30:28.755Z,25.60
2018-03-20T10:31:33.656Z,21.45
2018-03-20T10:32:38.521Z,25.62
2018-03-20T10:33:43.609Z,24.60
2018-03-20T10:34:48.631Z,25.42
2018-03-20T10:35:54.246Z,30.53
2018-03-20T10:37:00.418Z,27.37
2018-03-20T10:38:06.240Z,33.28
2018-03-20T10:39:11.056Z,28.38
2018-03-20T10:40:16.177Z,33.00
2018-03-20T10:41:21.388Z,29.00
2018-03-20T10:42:26.575Z,25.37
2018-03-20T10:43:31.378Z,23.20
2018-03-20T10:44:36.343Z,25.42
2018-03-20T10:45:41.194Z,20.95
2018-03-20T10:46:46.690Z,29.27
2018-03-20T10:47:51.583Z,21.10
2018-03-20T10:48:56.853Z,31.50
2018-03-20T10:50:03.221Z,23.58
2018-03-20T10:51:08.903Z,25.20
2018-03-20T10:52:13.675Z,27.90
2018-03-20T10:53:19.287Z,23.43
2018-03-20T10:54:24.313Z,20.20
2018-03-20T10:55:29.206Z,13.65
2018-03-20T10:56:34.096Z,13.82
2018-03-20T10:57:40.213Z,18.13
2018-03-20T10:58:45.761Z,21.10
2018-03-20T10:59:51.419Z,22.92
2018-03-20T11:01:01.167Z,18.42
2018-03-20T11:02:10.168Z,26.00
2018-03-20T11:03:15.861Z,20.02
2018-03-20T11:04:20.842Z,21.33
2018-03-20T11:05:25.641Z,13.85
2018-03-20T11:06:31.253Z,13.02
2018-03-20T11:07:37.409Z,16.10
2018-03-20T11:08:42.229Z,16.07
2018-03-20T11:09:47.430Z,14.05
2018-03-20T11:10:52.492Z,20.45
2018-03-20T11:11:58.136Z,9.57
2018-03-20T11:13:03.618Z,15.88
2018-03-20T11:14:09.434Z,15.25
2018-03-20T11:15:14.790Z,9.05
2018-03-20T11:16:20.558Z,9.48
2018-03-20T11:17:25.968Z,6.55
2018-03-20T11:18:30.918Z,9.23
2018-03-20T11:19:35.857Z,7.47
2018-03-20T11:20:41.654Z,4.20
2018-03-20T11:21:46.597Z,9.05
2018-03-20T11:22:52.015Z,6.00
2018-03-20T11:23:58.262Z,6.95
2018-03-20T11:25:03.847Z,2.80
2018-03-20T11:26:09.314Z,5.20
2018-03-20T11:27:14.097Z,5.87
2018-03-20T11:28:19.660Z,4.50
2018-03-20T11:29:24.425Z,6.32
2018-03-20T11:30:29.372Z,2.70
2018-03-20T11:31:35.251Z,6.62
2018-03-20T11:32:39.954Z,3.80
2018-03-20T11:33:44.729Z,3.33
2018-03-20T11:34:49.751Z,6.90
2018-03-20T11:35:54.857Z,5.00
2018-03-20T11:37:00.816Z,6.47
2018-03-20T11:38:05.598Z,5.65
2018-03-20T11:39:10.441Z,4.70
2018-03-20T11:40:15.339Z,3.20
2018-03-20T11:41:20.148Z,5.25
2018-03-20T11:42:25.842Z,8.10
2018-03-20T11:43:30.705Z,7.95
2018-03-20T11:44:35.729Z,3.20
2018-03-20T11:45:40.624Z,2.97
2018-03-20T11:46:46.322Z,3.42
2018-03-20T11:47:51.064Z,6.00
2018-03-20T11:48:56.028Z,4.30
2018-03-20T11:50:02.489Z,6.05
2018-03-20T11:51:08.065Z,3.53
2018-03-20T11:52:12.969Z,4.20
2018-03-20T11:53:18.008Z,5.05
2018-03-20T11:54:23.603Z,5.25
2018-03-20T11:55:28.383Z,6.45
2018-03-20T11:56:33.207Z,4.22
2018-03-20T11:57:38.931Z,5.00
2018-03-20T11:58:43.647Z,3.60
2018-03-20T11:59:48.510Z,2.95
2018-03-20T12:00:54.220Z,5.00
2018-03-20T12:02:00.158Z,2.90
2018-03-20T12:03:05.191Z,4.85
2018-03-20T12:04:10.189Z,5.97
2018-03-20T12:05:15.509Z,5.53
2018-03-20T12:06:20.431Z,4.25
2018-03-20T12:07:25.321Z,4.05
2018-03-20T12:08:40.268Z,5.75
2018-03-20T12:09:50.847Z,1.97
2018-03-20T12:10:55.762Z,3.47
2018-03-20T12:12:03.689Z,4.00
2018-03-20T12:13:08.839Z,2.47
2018-03-20T12:14:13.649Z,5.80
2018-03-20T12:15:19.181Z,3.25
2018-03-20T12:16:24.766Z,3.05
2018-03-20T12:17:29.657Z,4.30
2018-03-20T12:18:35.333Z,1.62
2018-03-20T12:19:40.199Z,8.10
2018-03-20T12:20:45.010Z,4.65
2018-03-20T12:21:50.040Z,4.97
2018-03-20T12:22:54.844Z,2.53
2018-03-20T12:24:00.881Z,5.80
2018-03-20T12:25:05.849Z,2.40
2018-03-20T12:26:10.752Z,5.00
2018-03-20T12:27:15.651Z,4.18
2018-03-20T12:28:20.575Z,4.50
2018-03-20T12:29:25.980Z,2.92
2018-03-20T12:30:30.807Z,6.50
2018-03-20T12:31:35.750Z,3.37
2018-03-20T12:32:41.030Z,1.90
2018-03-20T12:33:46.659Z,4.70
2018-03-20T12:34:52.221Z,2.53
2018-03-20T12:35:57.055Z,2.60
2018-03-20T12:37:04.026Z,2.90
2018-03-20T12:38:09.912Z,2.70
2018-03-20T12:39:14.821Z,3.33
2018-03-20T12:40:19.602Z,3.92
2018-03-20T12:41:24.333Z,2.20
2018-03-20T12:42:29.353Z,4.12
2018-03-20T12:43:34.363Z,4.82
2018-03-20T12:44:39.165Z,5.22
2018-03-20T12:45:44.161Z,4.00
2018-03-20T12:46:49.736Z,1.70
2018-03-20T12:47:54.593Z,2.28
2018-03-20T12:49:00.936Z,1.50
2018-03-20T12:50:05.803Z,4.50
2018-03-20T12:51:11.314Z,1.40
2018-03-20T12:52:16.245Z,3.00
2018-03-20T12:53:20.941Z,1.40
2018-03-20T12:54:25.998Z,3.28
2018-03-20T12:55:32.236Z,2.10
2018-03-20T12:56:36.957Z,2.20
2018-03-20T12:57:41.663Z,4.07
2018-03-20T12:58:46.790Z,5.43
2018-03-20T12:59:51.517Z,3.50
2018-03-20T13:00:57.442Z,20.15
2018-03-20T13:02:03.325Z,2.33
2018-03-20T13:03:08.875Z,3.00
2018-03-20T13:04:14.783Z,12.50
2018-03-20T13:05:20.628Z,3.70
2018-03-20T13:06:26.140Z,1.70
2018-03-20T13:07:30.899Z,1.83
2018-03-20T13:08:36.453Z,5.57
2018-03-20T13:09:42.162Z,4.70
2018-03-20T13:10:47.724Z,1.90
2018-03-20T13:11:53.813Z,2.10
2018-03-20T13:12:59.500Z,2.65
2018-03-20T13:14:04.729Z,2.25
2018-03-20T13:15:10.311Z,5.35
2018-03-20T13:16:15.033Z,1.27
2018-03-20T13:17:20.499Z,1.20
2018-03-20T13:18:25.318Z,4.50
2018-03-20T13:19:30.630Z,4.00
2018-03-20T13:20:35.476Z,4.30
2018-03-20T13:21:41.107Z,3.57
2018-03-20T13:22:46.554Z,4.65
2018-03-20T13:23:53.606Z,1.30
2018-03-20T13:25:02.968Z,3.58
2018-03-20T13:26:07.795Z,3.62
2018-03-20T13:27:13.624Z,1.30
2018-03-20T13:28:18.861Z,3.53
2018-03-20T13:29:23.812Z,5.50
2018-03-20T13:30:28.842Z,4.20
2018-03-20T13:31:34.436Z,2.47
2018-03-20T13:32:39.369Z,5.50
2018-03-20T13:33:44.363Z,3.80
2018-03-20T13:34:52.340Z,1.30
2018-03-20T13:35:57.116Z,1.90
2018-03-20T13:37:03.059Z,3.30
2018-03-20T13:38:07.979Z,3.60
2018-03-20T13:39:13.183Z,8.30
2018-03-20T13:40:18.031Z,1.57
2018-03-20T13:41:23.153Z,4.30
2018-03-20T13:42:27.878Z,4.15
2018-03-20T13:43:32.758Z,2.78
2018-03-20T13:44:38.693Z,3.40
2018-03-20T13:45:43.386Z,2.50
2018-03-20T13:46:48.869Z,4.50
2018-03-20T13:47:53.616Z,1.30
2018-03-20T13:49:00.025Z,4.40
2018-03-20T13:50:04.926Z,3.50
2018-03-20T13:51:09.785Z,2.03
2018-03-20T13:52:14.825Z,3.00
2018-03-20T13:53:19.630Z,4.50
2018-03-20T13:54:24.492Z,2.87
2018-03-20T13:55:29.604Z,2.80
2018-03-20T13:56:34.775Z,4.28
2018-03-20T13:57:40.298Z,3.90
2018-03-20T13:58:46.053Z,1.98
2018-03-20T13:59:50.933Z,1.90
2018-03-20T14:00:55.818Z,3.00
2018-03-20T14:02:02.450Z,4.65
2018-03-20T14:03:07.333Z,2.33
2018-03-20T14:04:12.868Z,2.70
2018-03-20T14:05:18.321Z,2.62
2018-03-20T14:06:23.157Z,1.20
2018-03-20T14:07:28.216Z,4.70
2018-03-20T14:08:34.364Z,6.47
2018-03-20T14:09:39.564Z,2.10
2018-03-20T14:10:45.803Z,3.33